Latest Weather Observations for Cape Willoughby

IDS60801

Issued at 10:01 am CDT Tuesday 17 October 2017 (issued every 30 minutes, with the page automatically refreshed every 10 minutes)

About weather observations | Map of weather stations | Latest weather observations for SA | Other Formats
Station Details ID: 022803 Name: CAPE WILLOUGHBY Lat: -35.84 Lon: 138.13 Height: 55.0 m
Data from the previous 72 hours. | See also: Recent months at Cape Willoughby
Date/Time
CDT
Temp
°C
App
Temp
°C
Dew
Point
°C
Rel
Hum
%
Delta-T
°C
Wind Press
QNH
hPa
Press
MSL
hPa
Rain since
9am
mm
Dir  Spd
km/h
Gust
km/h
Spd
kts
Gust
kts
17/10:00am 22.7 16.5 12.6 53 5.8 N 37 43 20 23 1015.9 1015.9 0.0
17/09:30am 22.4 16.0 12.1 52 5.8 N 37 41 20 22 1015.8 1015.8 0.0
17/09:00am 22.6 16.0 11.4 49 6.3 N 37 43 20 23 1015.8 1015.8 0.0
17/08:30am 22.3 16.8 11.7 51 5.9 N 32 39 17 21 1015.9 1015.9 0.0
17/08:00am 21.9 16.0 11.3 51 5.9 N 33 39 18 21 1015.7 1015.7 0.0
17/07:30am 21.0 15.7 11.3 54 5.4 N 30 37 16 20 1015.4 1015.4 0.0
17/07:00am 20.2 14.6 11.4 57 4.9 N 32 37 17 20 1015.1 1015.1 0.0
17/06:30am 20.4 14.4 10.8 54 5.2 NNW 33 43 18 23 1014.9 1014.9 0.0
17/06:00am 20.1 14.4 11.3 57 4.8 NNW 32 35 17 19 1014.6 1014.6 0.0
17/05:30am 20.7 14.8 11.1 54 5.3 NNW 33 39 18 21 1014.5 1014.5 0.0
17/05:00am 20.7 14.8 11.1 54 5.3 N 33 43 18 23 1014.3 1014.3 0.0
17/04:30am 21.1 14.5 11.2 53 5.5 N 37 44 20 24 1014.2 1014.2 0.0
17/04:00am 20.9 16.4 11.5 55 5.2 N 26 33 14 18 1014.4 1014.4 0.0
17/03:30am 20.3 18.5 12.0 59 4.6 N 13 24 7 13 1014.6 1014.6 0.0
17/03:00am 17.5 16.3 12.8 74 2.6 NNE 11 17 6 9 1014.8 1014.8 0.0
17/02:30am 17.3 16.9 13.0 76 2.4 NNE 7 13 4 7 1015.1 1015.1 0.0
17/02:00am 17.3 17.1 13.6 79 2.1 N 7 15 4 8 1015.4 1015.4 0.0
17/01:30am 17.7 14.7 13.6 77 2.3 NE 22 30 12 16 1015.8 1015.8 0.0
17/01:00am 18.3 14.4 13.2 72 2.9 NE 26 32 14 17 1016.2 1016.2 0.0
17/12:30am 18.6 14.2 13.0 70 3.2 NE 28 33 15 18 1016.8 1016.8 0.0
17/12:00am 18.4 15.1 12.8 70 3.1 NE 22 28 12 15 1017.3 1017.3 0.0
 
Date/Time
CDT
Temp
°C
App
Temp
°C
Dew
Point
°C
Rel
Hum
%
Delta-T
°C
Wind Press
QNH
hPa
Press
MSL
hPa
Rain since
9am
mm
Dir  Spd
km/h
Gust
km/h
Spd
kts
Gust
kts
16/11:30pm 19.3 16.7 12.1 63 4.0 NNE 17 24 9 13 1017.6 1017.6 0.0
16/11:00pm 19.1 17.0 12.4 65 3.7 NNE 15 20 8 11 1017.7 1017.7 0.0
16/10:30pm 18.9 17.7 12.9 68 3.4 NNE 11 17 6 9 1018.0 1018.0 0.0
16/10:00pm 18.6 16.8 12.1 66 3.6 N 13 17 7 9 1017.8 1017.8 0.0
16/09:30pm 19.8 19.4 12.3 62 4.2 N 6 9 3 5 1017.8 1017.8 0.0
16/09:00pm 20.2 19.2 12.4 61 4.4 NE 9 13 5 7 1017.6 1017.6 0.0
16/08:30pm 19.3 18.9 13.0 67 3.6 ENE 7 7 4 4 1017.4 1017.4 0.0
16/08:00pm 18.9 18.9 13.5 71 3.1 E 6 9 3 5 1017.1 1017.1 0.0
16/07:30pm 19.4 19.4 13.6 69 3.3 SE 6 9 3 5 1017.0 1017.0 0.0
16/07:00pm 19.3 19.6 13.5 69 3.3 SE 4 7 2 4 1017.1 1017.1 0.0
16/06:30pm 19.8 19.2 13.5 67 3.6 SE 9 15 5 8 1017.1 1017.1 0.0
16/06:00pm 20.0 19.8 13.7 67 3.6 SE 7 13 4 7 1017.2 1017.2 0.0
16/05:30pm 20.2 20.4 14.1 68 3.5 ESE 6 9 3 5 1017.3 1017.3 0.0
16/05:00pm 20.9 20.0 13.6 63 4.2 ESE 11 13 6 7 1017.3 1017.3 0.0
16/04:30pm 21.3 20.9 14.2 64 4.1 ESE 9 11 5 6 1017.4 1017.4 0.0
16/04:00pm 20.4 20.3 13.8 66 3.8 E 7 9 4 5 1017.6 1017.6 0.0
16/03:30pm 20.5 20.2 14.4 68 3.6 ENE 9 13 5 7 1017.9 1017.9 0.0
16/03:00pm 20.0 20.3 15.0 73 2.9 NE 7 11 4 6 1018.3 1018.3 0.0
16/02:30pm 19.5 19.5 15.2 76 2.5 NE 9 11 5 6 1018.6 1018.6 0.0
16/02:00pm 18.8 19.0 14.7 77 2.4 NE 7 11 4 6 1019.0 1019.0 0.0
16/01:30pm 18.2 18.3 14.5 79 2.1 ENE 7 9 4 5 1019.1 1019.1 0.0
16/01:00pm 17.8 18.1 14.5 81 1.9 ENE 6 7 3 4 1019.3 1019.3 0.0
16/12:30pm 17.7 18.2 15.0 84 1.6 ENE 6 9 3 5 1019.6 1019.6 0.0
16/12:00pm 17.3 17.5 14.8 85 1.4 NE 7 11 4 6 1020.0 1019.9 0.0
16/11:30am 16.9 16.7 14.7 87 1.3 NNE 9 11 5 6 1020.3 1020.2 0.0
16/11:00am 16.6 16.3 14.4 87 1.3 NE 9 11 5 6 1020.6 1020.5 0.0
16/10:30am 16.1 16.0 15.0 93 0.6 NE 9 11 5 6 1020.8 1020.7 0.0
16/10:00am 15.1 14.8 14.3 95 0.5 NE 9 11 5 6 1021.1 1021.0 0.0
16/09:30am 15.0 15.1 14.4 96 0.3 NE 7 9 4 5 1021.2 1021.1 0.0
16/09:00am 14.4 13.9 13.8 96 0.3 NE 9 13 5 7 1021.2 1021.1 0.2
16/08:30am 14.2 13.3 13.6 96 0.3 NE 11 15 6 8 1021.2 1021.1 0.2
16/08:00am 14.3 13.3 13.5 95 0.4 ENE 11 15 6 8 1021.1 1021.0 0.2
16/07:30am 14.4 13.1 13.6 95 0.4 ENE 13 17 7 9 1021.1 1021.0 0.2
16/07:00am 14.5 13.2 13.7 95 0.4 E 13 17 7 9 1020.9 1020.8 0.2
16/06:30am 14.4 13.1 13.6 95 0.4 E 13 20 7 11 1020.8 1020.7 0.2
16/06:00am 14.3 13.3 13.5 95 0.4 E 11 13 6 7 1020.6 1020.5 0.2
16/05:30am 14.2 13.6 13.4 95 0.4 E 9 13 5 7 1020.4 1020.3 0.0
16/05:00am 14.2 13.6 13.4 95 0.4 ESE 9 13 5 7 1020.2 1020.1 0.0
16/04:30am 14.2 13.5 13.2 94 0.6 E 9 11 5 6 1020.5 1020.4 0.0
16/04:00am 14.3 13.3 13.3 94 0.6 E 11 13 6 7 1020.6 1020.5 0.0
16/03:30am 14.2 13.1 13.2 94 0.6 E 11 13 6 7 1020.8 1020.7 0.0
16/03:00am 14.2 13.1 13.2 94 0.6 E 11 13 6 7 1021.1 1021.0 0.0
16/02:30am 14.2 13.5 13.1 93 0.6 E 9 11 5 6 1021.5 1021.4 0.0
16/02:00am 14.4 13.4 13.3 93 0.6 E 11 13 6 7 1021.8 1021.7 0.0
16/01:30am 14.2 12.6 12.9 92 0.7 E 13 15 7 8 1022.1 1022.0 0.0
16/01:00am 14.0 12.8 12.7 92 0.7 ESE 11 13 6 7 1022.5 1022.4 0.0
16/12:30am 14.1 12.5 12.7 91 0.8 ESE 13 17 7 9 1022.4 1022.3 0.0
16/12:00am 14.2 13.0 12.8 91 0.8 ESE 11 15 6 8 1022.7 1022.6 0.0
 
Date/Time
CDT
Temp
°C
App
Temp
°C
Dew
Point
°C
Rel
Hum
%
Delta-T
°C
Wind Press
QNH
hPa
Press
MSL
hPa
Rain since
9am
mm
Dir  Spd
km/h
Gust
km/h
Spd
kts
Gust
kts
15/11:30pm 14.0 12.3 12.4 90 0.9 SE 13 15 7 8 1022.8 1022.7 0.0
15/11:00pm 13.9 12.5 12.3 90 0.9 SE 11 15 6 8 1023.0 1022.9 0.0
15/10:30pm 13.9 12.5 12.1 89 1.0 SE 11 13 6 7 1023.0 1022.9 0.0
15/10:00pm 13.9 12.5 12.1 89 1.0 ESE 11 11 6 6 1022.9 1022.8 0.0
15/09:30pm 13.9 12.5 12.1 89 1.0 ESE 11 13 6 7 1022.6 1022.5 0.0
15/09:00pm 13.7 12.6 11.9 89 1.0 ESE 9 11 5 6 1022.6 1022.5 0.0
15/08:30pm 13.8 12.0 12.0 89 1.0 ESE 13 17 7 9 1022.3 1022.2 0.0
15/08:00pm 13.8 12.0 12.0 89 1.0 ESE 13 17 7 9 1022.3 1022.2 0.0
15/07:30pm 13.7 11.4 11.8 88 1.0 ESE 15 19 8 10 1022.3 1022.2 0.0
15/07:00pm 13.8 10.1 11.5 86 1.2 SE 22 26 12 14 1022.0 1021.9 0.0
15/06:30pm 14.1 9.7 11.6 85 1.3 SE 26 32 14 17 1022.1 1022.0 0.0
15/06:00pm 14.3 9.1 11.6 84 1.4 SE 30 33 16 18 1022.0 1021.9 0.0
15/05:30pm 14.4 8.9 11.7 84 1.4 SE 32 35 17 19 1022.1 1022.0 0.0
15/05:00pm 14.8 9.7 11.8 82 1.6 SE 30 35 16 19 1022.2 1022.1 0.0
15/04:30pm 15.0 9.9 11.8 81 1.7 SE 30 37 16 20 1022.3 1022.2 0.0
15/04:00pm 15.0 10.2 11.6 80 1.8 SE 28 32 15 17 1022.5 1022.4 0.0
15/03:30pm 15.4 11.1 12.0 80 1.8 SE 26 30 14 16 1023.0 1022.9 0.0
15/03:00pm 15.5 11.5 11.9 79 1.9 SE 24 30 13 16 1023.3 1023.2 0.0
15/02:30pm 16.0 12.1 12.0 77 2.2 SE 24 28 13 15 1023.5 1023.4 0.0
15/02:00pm 16.1 13.0 12.3 78 2.1 SE 20 26 11 14 1023.8 1023.7 0.0
15/01:30pm 15.8 13.3 12.2 79 2.0 SE 17 20 9 11 1024.0 1023.9 0.0
15/01:00pm 15.8 13.5 11.8 77 2.2 ESE 15 19 8 10 1023.9 1023.8 0.0
15/12:30pm 15.9 13.3 11.9 77 2.2 ESE 17 20 9 11 1024.1 1024.0 0.0
15/12:00pm 15.8 13.3 12.4 80 1.9 E 17 22 9 12 1024.2 1024.1 0.0
15/11:30am 15.3 12.3 11.9 80 1.8 E 19 22 10 12 1024.4 1024.3 0.0
15/11:00am 14.6 10.9 11.4 81 1.7 ENE 22 28 12 15 1024.6 1024.6 0.0
15/10:30am 14.8 10.8 11.8 82 1.6 E 24 30 13 16 1024.7 1024.7 0.0
15/10:00am 14.5 10.9 11.7 83 1.5 E 22 28 12 15 1024.7 1024.7 0.0
15/09:30am 14.7 11.5 11.8 83 1.6 E 20 28 11 15 1024.7 1024.7 0.0
15/09:00am 14.8 11.6 11.8 82 1.6 E 20 26 11 14 1024.5 1024.5 0.2
15/08:30am 14.4 10.7 11.6 83 1.5 ESE 22 28 12 15 1024.3 1024.2 0.2
15/08:00am 13.7 9.9 11.2 85 1.3 ESE 22 28 12 15 1024.4 1024.3 0.2
15/07:30am 13.5 10.1 11.4 87 1.1 E 20 24 11 13 1024.4 1024.3 0.2
15/07:00am 13.1 9.8 10.8 86 1.2 ESE 19 28 10 15 1024.1 1024.0 0.2
15/06:30am 13.2 9.7 10.9 86 1.2 ESE 20 28 11 15 1024.0 1023.9 0.2
15/06:00am 13.2 9.8 11.1 87 1.1 ESE 20 26 11 14 1023.8 1023.7 0.2
15/05:30am 13.4 9.6 11.3 87 1.1 ESE 22 30 12 16 1023.5 1023.4 0.2
15/05:00am 13.4 9.6 11.1 86 1.2 ESE 22 28 12 15 1023.6 1023.5 0.2
15/04:30am 13.2 8.5 10.6 84 1.4 E 26 41 14 22 1023.3 1023.2 0.2
15/04:00am 13.3 9.8 10.8 85 1.3 ESE 20 32 11 17 1023.7 1023.6 0.2
15/03:30am 13.1 9.7 10.6 85 1.3 ESE 19 26 10 14 1023.8 1023.7 0.2
15/03:00am 13.1 9.5 10.6 85 1.3 ESE 20 26 11 14 1024.0 1023.9 0.2
15/02:30am 13.1 9.7 10.6 85 1.3 ESE 19 24 10 13 1024.2 1024.1 0.2
15/02:00am 13.3 9.8 11.0 86 1.2 ESE 20 24 11 13 1024.3 1024.2 0.2
15/01:30am 13.2 9.3 10.9 86 1.2 ESE 22 28 12 15 1024.6 1024.6 0.2
15/01:00am 13.2 8.9 10.9 86 1.2 SE 24 28 13 15 1024.7 1024.7 0.2
15/12:30am 13.1 8.8 10.8 86 1.2 SE 24 28 13 15 1024.7 1024.7 0.2
15/12:00am 13.0 8.7 10.7 86 1.2 SE 24 30 13 16 1024.8 1024.8 0.2
 
Date/Time
CDT
Temp
°C
App
Temp
°C
Dew
Point
°C
Rel
Hum
%
Delta-T
°C
Wind Press
QNH
hPa
Press
MSL
hPa
Rain since
9am
mm
Dir  Spd
km/h
Gust
km/h
Spd
kts
Gust
kts
14/11:30pm 13.1 8.8 10.8 86 1.2 SE 24 30 13 16 1024.6 1024.6 0.2
14/11:00pm 13.1 8.8 10.6 85 1.3 SE 24 30 13 16 1024.8 1024.8 0.2
14/10:30pm 13.2 8.5 10.6 84 1.4 SE 26 30 14 16 1024.9 1024.9 0.2
14/10:00pm 13.2 8.9 10.6 84 1.4 SE 24 32 13 17 1024.9 1024.9 0.2
14/09:30pm 13.3 8.6 10.7 84 1.4 SSE 26 32 14 17 1025.0 1025.0 0.2
14/09:00pm 13.3 8.9 10.5 83 1.5 SE 24 30 13 16 1025.0 1025.0 0.2
14/08:30pm 13.3 8.9 10.5 83 1.5 SSE 24 30 13 16 1024.9 1024.9 0.2
14/08:00pm 13.4 9.4 10.4 82 1.6 SSE 22 30 12 16 1024.9 1024.9 0.2
14/07:30pm 13.5 9.5 10.3 81 1.7 SSE 22 28 12 15 1024.9 1024.9 0.2
14/07:00pm 13.7 9.7 10.3 80 1.8 SSE 22 30 12 16 1024.6 1024.6 0.2
14/06:30pm 13.9 10.2 10.1 78 2.0 SSE 20 26 11 14 1024.7 1024.7 0.2
14/06:00pm 14.1 10.6 10.1 77 2.1 SSE 19 24 10 13 1024.4 1024.3 0.2
14/05:30pm 14.3 10.7 9.9 75 2.3 SSE 19 26 10 14 1024.3 1024.2 0.2
14/05:00pm 14.8 11.7 10.4 75 2.3 SSE 17 20 9 11 1024.4 1024.3 0.2
14/04:30pm 14.7 11.5 10.1 74 2.4 SSE 17 22 9 12 1024.4 1024.3 0.2
14/04:00pm 14.9 12.1 9.9 72 2.6 SSE 15 19 8 10 1024.5 1024.5 0.2
14/03:30pm 15.9 13.5 10.2 69 3.0 SE 13 17 7 9 1024.7 1024.7 0.2
14/03:00pm 16.2 14.2 10.3 68 3.1 SE 11 15 6 8 1024.8 1024.8 0.2
14/02:30pm 16.4 14.4 10.3 67 3.2 SE 11 17 6 9 1025.0 1025.0 0.2
14/02:00pm 16.2 14.2 10.1 67 3.2 SE 11 17 6 9 1025.4 1025.4 0.2
14/01:30pm 15.7 13.9 9.6 67 3.2 ESE 9 15 5 8 1025.6 1025.6 0.2
14/01:00pm 16.1 14.5 10.2 68 3.1 ESE 9 15 5 8 1025.8 1025.8 0.2
14/12:30pm 15.9 14.2 9.8 67 3.2 E 9 17 5 9 1026.1 1026.1 0.2
14/12:00pm 16.1 14.6 10.4 69 3.0 ESE 9 13 5 7 1026.3 1026.3 0.0
14/11:30am 15.4 12.9 9.7 69 2.9 E 13 19 7 10 1026.5 1026.5 0.0
14/11:00am 15.0 12.5 9.8 71 2.7 E 13 19 7 10 1026.5 1026.5 0.0
14/10:30am 14.2 11.0 9.8 75 2.3 ESE 17 19 9 10 1026.6 1026.6 0.0

Other Formats:

Comma delimited format used in spreadsheet applications
http://www.bom.gov.au/fwo/IDS60801/IDS60801.94822.axf

JavaScript Object Notation format (JSON) in row-major order
http://www.bom.gov.au/fwo/IDS60801/IDS60801.94822.json